sensor_id;sensor_type;location;lat;lon;timestamp;P1;durP1;ratioP1;P2;durP2;ratioP2
2928;SDS011;1474;51.460;7.150;2023-07-20T00:01:26;4.97;;;2.75;;
2928;SDS011;1474;51.460;7.150;2023-07-20T00:03:52;3.63;;;3.00;;
2928;SDS011;1474;51.460;7.150;2023-07-20T00:06:21;7.18;;;2.90;;
2928;SDS011;1474;51.460;7.150;2023-07-20T00:08:49;3.92;;;2.60;;
2928;SDS011;1474;51.460;7.150;2023-07-20T00:11:14;5.60;;;3.65;;
2928;SDS011;1474;51.460;7.150;2023-07-20T00:13:40;4.90;;;3.17;;
2928;SDS011;1474;51.460;7.150;2023-07-20T00:16:06;6.28;;;3.22;;
2928;SDS011;1474;51.460;7.150;2023-07-20T00:18:32;3.47;;;2.53;;
2928;SDS011;1474;51.460;7.150;2023-07-20T00:20:58;6.20;;;2.92;;
2928;SDS011;1474;51.460;7.150;2023-07-20T00:23:27;5.57;;;2.70;;
2928;SDS011;1474;51.460;7.150;2023-07-20T00:25:53;4.13;;;3.05;;
2928;SDS011;1474;51.460;7.150;2023-07-20T00:28:19;5.57;;;2.80;;
2928;SDS011;1474;51.460;7.150;2023-07-20T00:30:45;4.40;;;2.53;;
2928;SDS011;1474;51.460;7.150;2023-07-20T00:33:11;3.70;;;3.22;;
2928;SDS011;1474;51.460;7.150;2023-07-20T00:35:38;4.75;;;3.17;;
2928;SDS011;1474;51.460;7.150;2023-07-20T00:38:04;3.47;;;2.35;;
2928;SDS011;1474;51.460;7.150;2023-07-20T00:40:37;3.80;;;2.67;;
2928;SDS011;1474;51.460;7.150;2023-07-20T00:43:04;4.00;;;2.97;;
2928;SDS011;1474;51.460;7.150;2023-07-20T00:45:30;4.78;;;2.90;;
2928;SDS011;1474;51.460;7.150;2023-07-20T00:47:58;4.63;;;2.90;;
2928;SDS011;1474;51.460;7.150;2023-07-20T00:50:26;7.15;;;3.13;;
2928;SDS011;1474;51.460;7.150;2023-07-20T00:52:57;4.55;;;2.72;;
2928;SDS011;1474;51.460;7.150;2023-07-20T00:55:24;6.30;;;2.88;;
2928;SDS011;1474;51.460;7.150;2023-07-20T00:57:51;4.10;;;2.92;;
2928;SDS011;1474;51.460;7.150;2023-07-20T01:00:18;3.53;;;2.70;;
2928;SDS011;1474;51.460;7.150;2023-07-20T01:02:44;4.40;;;3.25;;
2928;SDS011;1474;51.460;7.150;2023-07-20T01:05:12;3.88;;;2.92;;
2928;SDS011;1474;51.460;7.150;2023-07-20T01:10:46;3.72;;;3.20;;
2928;SDS011;1474;51.460;7.150;2023-07-20T01:13:34;5.05;;;2.92;;
2928;SDS011;1474;51.460;7.150;2023-07-20T01:16:02;5.13;;;3.10;;
2928;SDS011;1474;51.460;7.150;2023-07-20T01:18:29;5.93;;;3.63;;
2928;SDS011;1474;51.460;7.150;2023-07-20T01:20:57;3.42;;;3.05;;
2928;SDS011;1474;51.460;7.150;2023-07-20T01:29:48;6.03;;;3.67;;
2928;SDS011;1474;51.460;7.150;2023-07-20T01:32:38;4.95;;;3.60;;
2928;SDS011;1474;51.460;7.150;2023-07-20T01:35:08;6.78;;;3.83;;
2928;SDS011;1474;51.460;7.150;2023-07-20T01:37:39;6.38;;;3.83;;
2928;SDS011;1474;51.460;7.150;2023-07-20T01:40:10;6.40;;;4.03;;
2928;SDS011;1474;51.460;7.150;2023-07-20T01:42:38;5.22;;;4.03;;
2928;SDS011;1474;51.460;7.150;2023-07-20T01:45:09;6.55;;;3.97;;
2928;SDS011;1474;51.460;7.150;2023-07-20T01:47:35;6.45;;;4.13;;
2928;SDS011;1474;51.460;7.150;2023-07-20T01:50:01;7.32;;;3.97;;
2928;SDS011;1474;51.460;7.150;2023-07-20T01:52:26;5.88;;;4.03;;
2928;SDS011;1474;51.460;7.150;2023-07-20T01:54:52;8.00;;;4.15;;
2928;SDS011;1474;51.460;7.150;2023-07-20T01:57:18;5.18;;;3.40;;
2928;SDS011;1474;51.460;7.150;2023-07-20T01:59:44;5.63;;;3.65;;
2928;SDS011;1474;51.460;7.150;2023-07-20T02:02:10;7.72;;;4.05;;
2928;SDS011;1474;51.460;7.150;2023-07-20T02:04:35;5.65;;;3.58;;
2928;SDS011;1474;51.460;7.150;2023-07-20T02:07:01;6.45;;;3.83;;
2928;SDS011;1474;51.460;7.150;2023-07-20T02:09:27;7.15;;;4.05;;
2928;SDS011;1474;51.460;7.150;2023-07-20T02:11:53;6.45;;;3.65;;
2928;SDS011;1474;51.460;7.150;2023-07-20T02:14:19;6.05;;;3.95;;
2928;SDS011;1474;51.460;7.150;2023-07-20T02:16:44;6.80;;;4.25;;
2928;SDS011;1474;51.460;7.150;2023-07-20T02:19:10;6.88;;;4.18;;
2928;SDS011;1474;51.460;7.150;2023-07-20T02:21:39;6.00;;;3.97;;
2928;SDS011;1474;51.460;7.150;2023-07-20T02:24:05;7.50;;;4.35;;
2928;SDS011;1474;51.460;7.150;2023-07-20T02:26:31;11.35;;;4.53;;
2928;SDS011;1474;51.460;7.150;2023-07-20T02:28:57;7.90;;;4.18;;
2928;SDS011;1474;51.460;7.150;2023-07-20T02:31:23;5.75;;;4.45;;
2928;SDS011;1474;51.460;7.150;2023-07-20T02:33:49;7.53;;;4.43;;
2928;SDS011;1474;51.460;7.150;2023-07-20T02:36:15;7.38;;;4.22;;
2928;SDS011;1474;51.460;7.150;2023-07-20T02:38:41;5.53;;;4.28;;
2928;SDS011;1474;51.460;7.150;2023-07-20T02:41:07;6.90;;;3.85;;
2928;SDS011;1474;51.460;7.150;2023-07-20T02:43:33;7.13;;;5.13;;
2928;SDS011;1474;51.460;7.150;2023-07-20T02:45:59;7.85;;;4.50;;
2928;SDS011;1474;51.460;7.150;2023-07-20T02:48:25;6.75;;;4.82;;
2928;SDS011;1474;51.460;7.150;2023-07-20T02:50:51;5.65;;;4.22;;
2928;SDS011;1474;51.460;7.150;2023-07-20T02:53:26;8.93;;;5.10;;
2928;SDS011;1474;51.460;7.150;2023-07-20T02:56:07;7.65;;;4.70;;
2928;SDS011;1474;51.460;7.150;2023-07-20T02:58:41;8.77;;;5.22;;
2928;SDS011;1474;51.460;7.150;2023-07-20T03:01:16;8.77;;;5.40;;
2928;SDS011;1474;51.460;7.150;2023-07-20T03:06:39;6.65;;;4.57;;
2928;SDS011;1474;51.460;7.150;2023-07-20T03:09:28;6.30;;;4.50;;
2928;SDS011;1474;51.460;7.150;2023-07-20T03:12:46;9.63;;;5.53;;
2928;SDS011;1474;51.460;7.150;2023-07-20T03:15:58;7.10;;;4.65;;
2928;SDS011;1474;51.460;7.150;2023-07-20T03:18:46;7.95;;;4.82;;
2928;SDS011;1474;51.460;7.150;2023-07-20T03:22:31;6.50;;;4.72;;
2928;SDS011;1474;51.460;7.150;2023-07-20T03:25:10;6.15;;;4.78;;
2928;SDS011;1474;51.460;7.150;2023-07-20T03:28:35;9.63;;;5.13;;
2928;SDS011;1474;51.460;7.150;2023-07-20T03:31:48;8.43;;;6.03;;
2928;SDS011;1474;51.460;7.150;2023-07-20T03:34:49;9.50;;;6.47;;
2928;SDS011;1474;51.460;7.150;2023-07-20T03:40:52;10.35;;;5.82;;
2928;SDS011;1474;51.460;7.150;2023-07-20T03:43:47;10.60;;;5.50;;
2928;SDS011;1474;51.460;7.150;2023-07-20T03:46:35;7.78;;;5.80;;
2928;SDS011;1474;51.460;7.150;2023-07-20T03:49:40;9.70;;;6.40;;
2928;SDS011;1474;51.460;7.150;2023-07-20T03:52:14;7.78;;;5.55;;
2928;SDS011;1474;51.460;7.150;2023-07-20T03:55:01;12.75;;;7.32;;
2928;SDS011;1474;51.460;7.150;2023-07-20T03:58:11;7.55;;;6.07;;
2928;SDS011;1474;51.460;7.150;2023-07-20T04:03:58;10.27;;;6.75;;
2928;SDS011;1474;51.460;7.150;2023-07-20T04:06:46;8.70;;;6.38;;
2928;SDS011;1474;51.460;7.150;2023-07-20T04:10:15;12.90;;;7.60;;
2928;SDS011;1474;51.460;7.150;2023-07-20T10:18:38;0.63;;;0.63;;
2928;SDS011;1474;51.460;7.150;2023-07-20T10:22:07;0.95;;;0.88;;
2928;SDS011;1474;51.460;7.150;2023-07-20T10:25:04;13.27;;;1.83;;
2928;SDS011;1474;51.460;7.150;2023-07-20T10:28:05;1.52;;;0.80;;
2928;SDS011;1474;51.460;7.150;2023-07-20T10:30:52;1.00;;;0.85;;
2928;SDS011;1474;51.460;7.150;2023-07-20T10:33:37;1.08;;;0.93;;
2928;SDS011;1474;51.460;7.150;2023-07-20T10:36:33;0.95;;;0.85;;
2928;SDS011;1474;51.460;7.150;2023-07-20T10:39:23;1.10;;;0.70;;
2928;SDS011;1474;51.460;7.150;2023-07-20T10:42:08;1.58;;;0.63;;
2928;SDS011;1474;51.460;7.150;2023-07-20T10:44:38;0.60;;;0.60;;
2928;SDS011;1474;51.460;7.150;2023-07-20T10:47:24;0.73;;;0.57;;
2928;SDS011;1474;51.460;7.150;2023-07-20T10:50:02;2.05;;;0.70;;
2928;SDS011;1474;51.460;7.150;2023-07-20T10:53:20;1.02;;;0.50;;
2928;SDS011;1474;51.460;7.150;2023-07-20T10:55:47;1.13;;;0.60;;
2928;SDS011;1474;51.460;7.150;2023-07-20T10:58:35;0.47;;;0.40;;
2928;SDS011;1474;51.460;7.150;2023-07-20T11:01:03;0.68;;;0.57;;
2928;SDS011;1474;51.460;7.150;2023-07-20T11:03:36;0.82;;;0.47;;
2928;SDS011;1474;51.460;7.150;2023-07-20T11:09:14;1.05;;;0.50;;
2928;SDS011;1474;51.460;7.150;2023-07-20T11:11:44;1.13;;;0.50;;
2928;SDS011;1474;51.460;7.150;2023-07-20T11:14:20;2.15;;;0.50;;
2928;SDS011;1474;51.460;7.150;2023-07-20T11:16:53;0.52;;;0.40;;
2928;SDS011;1474;51.460;7.150;2023-07-20T11:19:24;0.47;;;0.45;;
2928;SDS011;1474;51.460;7.150;2023-07-20T11:21:52;1.20;;;0.60;;
2928;SDS011;1474;51.460;7.150;2023-07-20T11:24:55;1.20;;;0.60;;
2928;SDS011;1474;51.460;7.150;2023-07-20T11:27:31;2.00;;;0.80;;
2928;SDS011;1474;51.460;7.150;2023-07-20T11:33:21;0.85;;;0.68;;
2928;SDS011;1474;51.460;7.150;2023-07-20T11:36:01;0.70;;;0.70;;
2928;SDS011;1474;51.460;7.150;2023-07-20T11:38:31;0.60;;;0.55;;
2928;SDS011;1474;51.460;7.150;2023-07-20T11:41:26;1.17;;;1.00;;
2928;SDS011;1474;51.460;7.150;2023-07-20T11:44:19;1.00;;;0.80;;
2928;SDS011;1474;51.460;7.150;2023-07-20T11:47:10;0.60;;;0.60;;
2928;SDS011;1474;51.460;7.150;2023-07-20T11:49:40;0.50;;;0.50;;
2928;SDS011;1474;51.460;7.150;2023-07-20T11:52:09;0.70;;;0.60;;
2928;SDS011;1474;51.460;7.150;2023-07-20T11:54:41;0.80;;;0.80;;
2928;SDS011;1474;51.460;7.150;2023-07-20T11:57:18;0.93;;;0.80;;
2928;SDS011;1474;51.460;7.150;2023-07-20T11:59:55;2.85;;;1.08;;
2928;SDS011;1474;51.460;7.150;2023-07-20T12:02:47;1.35;;;0.80;;
2928;SDS011;1474;51.460;7.150;2023-07-20T12:05:22;0.70;;;0.70;;
2928;SDS011;1474;51.460;7.150;2023-07-20T12:07:55;2.00;;;0.88;;
2928;SDS011;1474;51.460;7.150;2023-07-20T12:10:25;1.00;;;0.75;;
2928;SDS011;1474;51.460;7.150;2023-07-20T12:12:54;1.00;;;0.73;;
2928;SDS011;1474;51.460;7.150;2023-07-20T12:15:28;2.00;;;0.85;;
2928;SDS011;1474;51.460;7.150;2023-07-20T12:17:58;2.35;;;0.80;;
2928;SDS011;1474;51.460;7.150;2023-07-20T12:20:30;1.15;;;0.63;;
2928;SDS011;1474;51.460;7.150;2023-07-20T12:23:02;1.08;;;0.70;;
2928;SDS011;1474;51.460;7.150;2023-07-20T12:25:46;1.40;;;0.90;;
2928;SDS011;1474;51.460;7.150;2023-07-20T12:28:16;0.70;;;0.63;;
2928;SDS011;1474;51.460;7.150;2023-07-20T12:30:45;2.90;;;1.00;;
2928;SDS011;1474;51.460;7.150;2023-07-20T12:33:16;1.15;;;1.05;;
2928;SDS011;1474;51.460;7.150;2023-07-20T12:35:42;1.35;;;1.25;;
2928;SDS011;1474;51.460;7.150;2023-07-20T12:38:09;1.38;;;1.00;;
2928;SDS011;1474;51.460;7.150;2023-07-20T12:40:35;1.52;;;1.20;;
2928;SDS011;1474;51.460;7.150;2023-07-20T12:43:01;1.30;;;0.85;;
2928;SDS011;1474;51.460;7.150;2023-07-20T12:47:57;1.10;;;0.90;;
2928;SDS011;1474;51.460;7.150;2023-07-20T12:50:23;1.40;;;0.90;;
2928;SDS011;1474;51.460;7.150;2023-07-20T12:52:49;1.45;;;1.00;;
2928;SDS011;1474;51.460;7.150;2023-07-20T12:55:15;1.08;;;0.98;;
2928;SDS011;1474;51.460;7.150;2023-07-20T12:57:46;2.22;;;1.13;;
2928;SDS011;1474;51.460;7.150;2023-07-20T13:00:14;1.77;;;0.90;;
2928;SDS011;1474;51.460;7.150;2023-07-20T13:02:41;0.85;;;0.82;;
2928;SDS011;1474;51.460;7.150;2023-07-20T13:05:08;2.28;;;1.00;;
2928;SDS011;1474;51.460;7.150;2023-07-20T13:07:38;1.80;;;0.93;;
2928;SDS011;1474;51.460;7.150;2023-07-20T13:10:06;1.40;;;1.30;;
2928;SDS011;1474;51.460;7.150;2023-07-20T13:12:34;1.23;;;1.13;;
2928;SDS011;1474;51.460;7.150;2023-07-20T13:15:01;1.75;;;1.02;;
2928;SDS011;1474;51.460;7.150;2023-07-20T13:17:33;1.85;;;1.00;;
2928;SDS011;1474;51.460;7.150;2023-07-20T13:20:06;1.42;;;0.90;;
2928;SDS011;1474;51.460;7.150;2023-07-20T13:22:35;1.00;;;0.90;;
2928;SDS011;1474;51.460;7.150;2023-07-20T13:25:05;1.17;;;0.98;;
2928;SDS011;1474;51.460;7.150;2023-07-20T13:27:35;1.20;;;0.93;;
2928;SDS011;1474;51.460;7.150;2023-07-20T13:30:02;1.25;;;1.15;;
2928;SDS011;1474;51.460;7.150;2023-07-20T13:32:32;1.65;;;1.00;;
2928;SDS011;1474;51.460;7.150;2023-07-20T13:34:59;1.20;;;1.00;;
2928;SDS011;1474;51.460;7.150;2023-07-20T13:37:25;0.85;;;0.85;;
2928;SDS011;1474;51.460;7.150;2023-07-20T13:39:52;0.90;;;0.90;;
2928;SDS011;1474;51.460;7.150;2023-07-20T13:42:18;1.20;;;1.00;;
2928;SDS011;1474;51.460;7.150;2023-07-20T13:44:47;3.00;;;1.15;;
2928;SDS011;1474;51.460;7.150;2023-07-20T13:47:14;1.33;;;1.20;;
2928;SDS011;1474;51.460;7.150;2023-07-20T13:49:39;1.58;;;1.05;;
2928;SDS011;1474;51.460;7.150;2023-07-20T13:52:06;1.30;;;1.00;;
2928;SDS011;1474;51.460;7.150;2023-07-20T13:54:32;2.60;;;0.95;;
2928;SDS011;1474;51.460;7.150;2023-07-20T13:57:01;1.37;;;1.20;;
2928;SDS011;1474;51.460;7.150;2023-07-20T13:59:28;1.40;;;1.13;;
2928;SDS011;1474;51.460;7.150;2023-07-20T14:01:54;1.40;;;1.00;;
2928;SDS011;1474;51.460;7.150;2023-07-20T14:04:22;1.70;;;1.60;;
2928;SDS011;1474;51.460;7.150;2023-07-20T14:06:48;1.00;;;0.90;;
2928;SDS011;1474;51.460;7.150;2023-07-20T14:09:16;1.33;;;1.05;;
2928;SDS011;1474;51.460;7.150;2023-07-20T14:11:42;1.08;;;0.98;;
2928;SDS011;1474;51.460;7.150;2023-07-20T14:14:08;0.93;;;0.85;;
2928;SDS011;1474;51.460;7.150;2023-07-20T14:16:34;1.95;;;1.35;;
2928;SDS011;1474;51.460;7.150;2023-07-20T14:19:00;1.27;;;1.00;;
2928;SDS011;1474;51.460;7.150;2023-07-20T14:21:26;1.15;;;0.80;;
2928;SDS011;1474;51.460;7.150;2023-07-20T14:23:53;1.52;;;0.90;;
2928;SDS011;1474;51.460;7.150;2023-07-20T14:26:19;1.58;;;0.80;;
2928;SDS011;1474;51.460;7.150;2023-07-20T14:28:46;1.17;;;0.70;;
2928;SDS011;1474;51.460;7.150;2023-07-20T14:31:12;1.33;;;1.00;;
2928;SDS011;1474;51.460;7.150;2023-07-20T14:33:41;2.90;;;1.17;;
2928;SDS011;1474;51.460;7.150;2023-07-20T14:36:07;1.63;;;0.63;;
2928;SDS011;1474;51.460;7.150;2023-07-20T14:38:33;1.33;;;0.90;;
2928;SDS011;1474;51.460;7.150;2023-07-20T14:41:00;0.80;;;0.80;;
2928;SDS011;1474;51.460;7.150;2023-07-20T14:43:26;2.22;;;0.77;;
2928;SDS011;1474;51.460;7.150;2023-07-20T14:45:52;1.25;;;0.60;;
2928;SDS011;1474;51.460;7.150;2023-07-20T14:48:19;1.30;;;0.70;;
2928;SDS011;1474;51.460;7.150;2023-07-20T14:50:45;1.95;;;0.88;;
2928;SDS011;1474;51.460;7.150;2023-07-20T14:53:12;2.08;;;0.88;;
2928;SDS011;1474;51.460;7.150;2023-07-20T14:55:39;0.70;;;0.60;;
2928;SDS011;1474;51.460;7.150;2023-07-20T14:58:10;0.85;;;0.70;;
2928;SDS011;1474;51.460;7.150;2023-07-20T15:00:36;1.42;;;0.80;;
2928;SDS011;1474;51.460;7.150;2023-07-20T15:03:03;1.67;;;0.80;;
2928;SDS011;1474;51.460;7.150;2023-07-20T15:05:33;1.90;;;0.80;;
2928;SDS011;1474;51.460;7.150;2023-07-20T15:08:01;1.30;;;0.77;;
2928;SDS011;1474;51.460;7.150;2023-07-20T15:10:28;1.52;;;0.95;;
2928;SDS011;1474;51.460;7.150;2023-07-20T15:12:57;1.90;;;1.00;;
2928;SDS011;1474;51.460;7.150;2023-07-20T15:15:25;1.35;;;0.90;;
2928;SDS011;1474;51.460;7.150;2023-07-20T15:17:51;1.92;;;0.85;;
2928;SDS011;1474;51.460;7.150;2023-07-20T15:20:23;1.27;;;0.98;;
2928;SDS011;1474;51.460;7.150;2023-07-20T15:22:49;1.38;;;0.88;;
2928;SDS011;1474;51.460;7.150;2023-07-20T15:25:15;1.73;;;1.02;;
2928;SDS011;1474;51.460;7.150;2023-07-20T15:27:44;1.00;;;0.90;;
2928;SDS011;1474;51.460;7.150;2023-07-20T15:30:16;1.05;;;0.75;;
2928;SDS011;1474;51.460;7.150;2023-07-20T15:36:55;0.70;;;0.70;;
2928;SDS011;1474;51.460;7.150;2023-07-20T15:40:14;1.63;;;0.80;;
2928;SDS011;1474;51.460;7.150;2023-07-20T15:42:56;1.45;;;1.23;;
2928;SDS011;1474;51.460;7.150;2023-07-20T15:45:28;3.25;;;1.10;;
2928;SDS011;1474;51.460;7.150;2023-07-20T15:47:57;2.10;;;0.97;;
2928;SDS011;1474;51.460;7.150;2023-07-20T15:53:23;1.45;;;0.70;;
2928;SDS011;1474;51.460;7.150;2023-07-20T15:55:54;1.23;;;0.85;;
2928;SDS011;1474;51.460;7.150;2023-07-20T15:58:52;1.42;;;0.88;;
2928;SDS011;1474;51.460;7.150;2023-07-20T16:01:21;0.93;;;0.80;;
2928;SDS011;1474;51.460;7.150;2023-07-20T16:03:49;1.60;;;0.60;;
2928;SDS011;1474;51.460;7.150;2023-07-20T16:09:17;2.83;;;1.13;;
2928;SDS011;1474;51.460;7.150;2023-07-20T16:12:03;1.80;;;0.77;;
2928;SDS011;1474;51.460;7.150;2023-07-20T16:14:31;2.58;;;0.80;;
2928;SDS011;1474;51.460;7.150;2023-07-20T16:17:05;1.08;;;0.98;;
2928;SDS011;1474;51.460;7.150;2023-07-20T16:19:31;1.83;;;0.95;;
2928;SDS011;1474;51.460;7.150;2023-07-20T16:21:57;1.92;;;0.90;;
2928;SDS011;1474;51.460;7.150;2023-07-20T16:24:23;3.50;;;0.77;;
2928;SDS011;1474;51.460;7.150;2023-07-20T16:26:48;3.08;;;0.80;;
2928;SDS011;1474;51.460;7.150;2023-07-20T16:29:14;1.73;;;1.00;;
2928;SDS011;1474;51.460;7.150;2023-07-20T16:31:40;1.95;;;1.15;;
2928;SDS011;1474;51.460;7.150;2023-07-20T16:34:06;1.40;;;0.95;;
2928;SDS011;1474;51.460;7.150;2023-07-20T16:36:31;1.48;;;1.00;;
2928;SDS011;1474;51.460;7.150;2023-07-20T16:38:59;0.65;;;0.65;;
2928;SDS011;1474;51.460;7.150;2023-07-20T16:41:25;1.75;;;0.90;;
2928;SDS011;1474;51.460;7.150;2023-07-20T16:43:51;2.17;;;1.00;;
2928;SDS011;1474;51.460;7.150;2023-07-20T16:46:17;2.50;;;1.30;;
2928;SDS011;1474;51.460;7.150;2023-07-20T16:48:43;3.78;;;1.10;;
2928;SDS011;1474;51.460;7.150;2023-07-20T16:51:09;3.80;;;1.48;;
2928;SDS011;1474;51.460;7.150;2023-07-20T16:53:34;2.47;;;1.20;;
2928;SDS011;1474;51.460;7.150;2023-07-20T16:56:00;1.73;;;1.30;;
2928;SDS011;1474;51.460;7.150;2023-07-20T16:58:26;4.60;;;1.35;;
2928;SDS011;1474;51.460;7.150;2023-07-20T17:00:59;1.48;;;1.00;;
2928;SDS011;1474;51.460;7.150;2023-07-20T17:03:29;2.17;;;0.93;;
2928;SDS011;1474;51.460;7.150;2023-07-20T17:05:56;1.98;;;1.30;;
2928;SDS011;1474;51.460;7.150;2023-07-20T17:08:22;1.00;;;0.90;;
2928;SDS011;1474;51.460;7.150;2023-07-20T17:10:49;1.77;;;1.05;;
2928;SDS011;1474;51.460;7.150;2023-07-20T17:13:15;1.35;;;0.98;;
2928;SDS011;1474;51.460;7.150;2023-07-20T17:15:45;1.30;;;1.08;;
2928;SDS011;1474;51.460;7.150;2023-07-20T17:18:12;1.30;;;1.05;;
2928;SDS011;1474;51.460;7.150;2023-07-20T17:20:38;1.00;;;0.80;;
2928;SDS011;1474;51.460;7.150;2023-07-20T17:23:04;2.03;;;1.40;;
2928;SDS011;1474;51.460;7.150;2023-07-20T17:25:30;2.45;;;1.10;;
2928;SDS011;1474;51.460;7.150;2023-07-20T17:27:56;1.38;;;1.10;;
2928;SDS011;1474;51.460;7.150;2023-07-20T17:30:23;1.65;;;1.40;;
2928;SDS011;1474;51.460;7.150;2023-07-20T17:32:50;1.80;;;0.93;;
2928;SDS011;1474;51.460;7.150;2023-07-20T17:35:16;1.30;;;1.20;;
2928;SDS011;1474;51.460;7.150;2023-07-20T17:37:43;2.53;;;1.20;;
2928;SDS011;1474;51.460;7.150;2023-07-20T17:40:09;0.88;;;0.82;;
2928;SDS011;1474;51.460;7.150;2023-07-20T17:42:37;1.67;;;1.13;;
2928;SDS011;1474;51.460;7.150;2023-07-20T17:45:04;2.85;;;0.98;;
2928;SDS011;1474;51.460;7.150;2023-07-20T17:47:31;1.10;;;1.00;;
2928;SDS011;1474;51.460;7.150;2023-07-20T17:49:57;2.67;;;1.35;;
2928;SDS011;1474;51.460;7.150;2023-07-20T17:52:23;2.78;;;1.00;;
2928;SDS011;1474;51.460;7.150;2023-07-20T17:54:49;1.58;;;0.93;;
2928;SDS011;1474;51.460;7.150;2023-07-20T17:57:15;0.95;;;0.75;;
2928;SDS011;1474;51.460;7.150;2023-07-20T17:59:41;0.77;;;0.77;;
2928;SDS011;1474;51.460;7.150;2023-07-20T18:02:07;1.20;;;0.95;;
2928;SDS011;1474;51.460;7.150;2023-07-20T18:04:34;1.20;;;1.10;;
2928;SDS011;1474;51.460;7.150;2023-07-20T18:07:00;1.02;;;0.73;;
2928;SDS011;1474;51.460;7.150;2023-07-20T18:09:25;2.35;;;0.98;;
2928;SDS011;1474;51.460;7.150;2023-07-20T18:11:51;0.90;;;0.70;;
2928;SDS011;1474;51.460;7.150;2023-07-20T18:14:17;2.20;;;0.90;;
2928;SDS011;1474;51.460;7.150;2023-07-20T18:16:43;2.25;;;0.98;;
2928;SDS011;1474;51.460;7.150;2023-07-20T18:19:09;1.70;;;1.10;;
2928;SDS011;1474;51.460;7.150;2023-07-20T18:21:35;2.50;;;1.10;;
2928;SDS011;1474;51.460;7.150;2023-07-20T18:24:01;1.85;;;0.80;;
2928;SDS011;1474;51.460;7.150;2023-07-20T18:26:27;1.40;;;0.70;;
2928;SDS011;1474;51.460;7.150;2023-07-20T18:28:53;1.45;;;0.70;;
2928;SDS011;1474;51.460;7.150;2023-07-20T18:31:18;1.15;;;0.60;;
2928;SDS011;1474;51.460;7.150;2023-07-20T18:33:44;1.35;;;0.70;;
2928;SDS011;1474;51.460;7.150;2023-07-20T18:36:10;0.90;;;0.70;;
2928;SDS011;1474;51.460;7.150;2023-07-20T18:38:36;1.17;;;0.80;;
2928;SDS011;1474;51.460;7.150;2023-07-20T18:41:02;1.77;;;0.68;;
2928;SDS011;1474;51.460;7.150;2023-07-20T18:43:28;1.58;;;0.70;;
2928;SDS011;1474;51.460;7.150;2023-07-20T18:45:54;0.70;;;0.60;;
2928;SDS011;1474;51.460;7.150;2023-07-20T18:48:20;2.08;;;0.77;;
2928;SDS011;1474;51.460;7.150;2023-07-20T18:50:47;0.75;;;0.60;;
2928;SDS011;1474;51.460;7.150;2023-07-20T18:53:13;0.85;;;0.50;;
2928;SDS011;1474;51.460;7.150;2023-07-20T18:55:38;1.48;;;0.85;;
2928;SDS011;1474;51.460;7.150;2023-07-20T18:58:04;1.92;;;1.10;;
2928;SDS011;1474;51.460;7.150;2023-07-20T19:00:30;2.20;;;0.85;;
2928;SDS011;1474;51.460;7.150;2023-07-20T19:02:59;2.20;;;1.02;;
2928;SDS011;1474;51.460;7.150;2023-07-20T19:05:25;1.85;;;1.05;;
2928;SDS011;1474;51.460;7.150;2023-07-20T19:07:51;1.85;;;1.08;;
2928;SDS011;1474;51.460;7.150;2023-07-20T19:10:17;1.75;;;0.88;;
2928;SDS011;1474;51.460;7.150;2023-07-20T19:12:43;3.38;;;0.80;;
2928;SDS011;1474;51.460;7.150;2023-07-20T19:15:08;1.20;;;0.88;;
2928;SDS011;1474;51.460;7.150;2023-07-20T19:17:35;1.98;;;1.15;;
2928;SDS011;1474;51.460;7.150;2023-07-20T19:20:01;1.30;;;0.80;;
2928;SDS011;1474;51.460;7.150;2023-07-20T19:22:27;4.03;;;1.00;;
2928;SDS011;1474;51.460;7.150;2023-07-20T19:24:56;1.77;;;0.90;;
2928;SDS011;1474;51.460;7.150;2023-07-20T19:27:22;1.00;;;0.80;;
2928;SDS011;1474;51.460;7.150;2023-07-20T19:29:48;3.50;;;1.00;;
2928;SDS011;1474;51.460;7.150;2023-07-20T19:32:14;1.35;;;0.95;;
2928;SDS011;1474;51.460;7.150;2023-07-20T19:34:39;2.45;;;1.30;;
2928;SDS011;1474;51.460;7.150;2023-07-20T19:37:05;2.30;;;1.30;;
2928;SDS011;1474;51.460;7.150;2023-07-20T19:39:31;1.52;;;0.93;;
2928;SDS011;1474;51.460;7.150;2023-07-20T19:41:57;1.08;;;0.82;;
2928;SDS011;1474;51.460;7.150;2023-07-20T19:44:23;1.15;;;0.90;;
2928;SDS011;1474;51.460;7.150;2023-07-20T19:46:48;1.52;;;1.05;;
2928;SDS011;1474;51.460;7.150;2023-07-20T19:49:14;2.75;;;1.00;;
2928;SDS011;1474;51.460;7.150;2023-07-20T19:51:40;2.30;;;1.10;;
2928;SDS011;1474;51.460;7.150;2023-07-20T19:54:06;2.30;;;1.90;;
2928;SDS011;1474;51.460;7.150;2023-07-20T19:56:32;1.98;;;0.95;;
2928;SDS011;1474;51.460;7.150;2023-07-20T19:58:59;1.58;;;1.10;;
2928;SDS011;1474;51.460;7.150;2023-07-20T20:01:25;1.30;;;0.98;;
2928;SDS011;1474;51.460;7.150;2023-07-20T20:03:51;1.55;;;1.10;;
2928;SDS011;1474;51.460;7.150;2023-07-20T20:06:17;1.60;;;1.05;;
2928;SDS011;1474;51.460;7.150;2023-07-20T20:08:43;1.10;;;1.00;;
2928;SDS011;1474;51.460;7.150;2023-07-20T20:11:09;1.52;;;1.00;;
2928;SDS011;1474;51.460;7.150;2023-07-20T20:13:34;1.60;;;1.00;;
2928;SDS011;1474;51.460;7.150;2023-07-20T20:16:00;1.80;;;0.90;;
2928;SDS011;1474;51.460;7.150;2023-07-20T20:18:28;1.80;;;1.25;;
2928;SDS011;1474;51.460;7.150;2023-07-20T20:20:57;1.92;;;1.48;;
2928;SDS011;1474;51.460;7.150;2023-07-20T20:23:23;4.72;;;1.25;;
2928;SDS011;1474;51.460;7.150;2023-07-20T20:25:49;2.25;;;1.10;;
2928;SDS011;1474;51.460;7.150;2023-07-20T20:28:15;1.55;;;1.20;;
2928;SDS011;1474;51.460;7.150;2023-07-20T20:30:45;2.55;;;1.40;;
2928;SDS011;1474;51.460;7.150;2023-07-20T20:33:18;3.63;;;1.38;;
2928;SDS011;1474;51.460;7.150;2023-07-20T20:35:46;2.00;;;1.42;;
2928;SDS011;1474;51.460;7.150;2023-07-20T20:40:46;1.95;;;1.17;;
2928;SDS011;1474;51.460;7.150;2023-07-20T20:43:14;1.10;;;0.95;;
2928;SDS011;1474;51.460;7.150;2023-07-20T20:45:40;1.85;;;1.42;;
2928;SDS011;1474;51.460;7.150;2023-07-20T20:48:06;3.03;;;1.30;;
2928;SDS011;1474;51.460;7.150;2023-07-20T20:50:36;1.63;;;1.23;;
2928;SDS011;1474;51.460;7.150;2023-07-20T20:53:08;1.75;;;1.17;;
2928;SDS011;1474;51.460;7.150;2023-07-20T20:55:37;3.20;;;1.00;;
2928;SDS011;1474;51.460;7.150;2023-07-20T20:58:03;1.35;;;0.93;;
2928;SDS011;1474;51.460;7.150;2023-07-20T21:00:30;1.33;;;1.02;;
2928;SDS011;1474;51.460;7.150;2023-07-20T21:02:56;2.05;;;1.00;;
2928;SDS011;1474;51.460;7.150;2023-07-20T21:05:22;1.30;;;1.00;;
2928;SDS011;1474;51.460;7.150;2023-07-20T21:07:49;3.08;;;1.50;;
2928;SDS011;1474;51.460;7.150;2023-07-20T21:10:16;2.70;;;1.95;;
2928;SDS011;1474;51.460;7.150;2023-07-20T21:12:42;5.00;;;2.92;;
2928;SDS011;1474;51.460;7.150;2023-07-20T21:15:08;6.07;;;3.30;;
2928;SDS011;1474;51.460;7.150;2023-07-20T21:17:35;5.07;;;3.10;;
2928;SDS011;1474;51.460;7.150;2023-07-20T21:20:01;5.85;;;3.70;;
2928;SDS011;1474;51.460;7.150;2023-07-20T21:22:29;6.43;;;3.70;;
2928;SDS011;1474;51.460;7.150;2023-07-20T21:24:55;5.05;;;3.00;;
2928;SDS011;1474;51.460;7.150;2023-07-20T21:27:21;6.22;;;5.35;;
2928;SDS011;1474;51.460;7.150;2023-07-20T21:29:47;5.22;;;2.47;;
2928;SDS011;1474;51.460;7.150;2023-07-20T21:32:13;2.40;;;1.70;;
2928;SDS011;1474;51.460;7.150;2023-07-20T21:34:39;2.47;;;2.00;;
2928;SDS011;1474;51.460;7.150;2023-07-20T21:37:05;2.33;;;2.05;;
2928;SDS011;1474;51.460;7.150;2023-07-20T21:39:31;2.60;;;2.40;;
2928;SDS011;1474;51.460;7.150;2023-07-20T21:41:57;3.03;;;2.30;;
2928;SDS011;1474;51.460;7.150;2023-07-20T21:44:23;3.42;;;2.38;;
2928;SDS011;1474;51.460;7.150;2023-07-20T21:46:49;3.67;;;2.97;;
2928;SDS011;1474;51.460;7.150;2023-07-20T21:49:15;3.42;;;2.83;;
2928;SDS011;1474;51.460;7.150;2023-07-20T21:51:42;3.30;;;3.00;;
2928;SDS011;1474;51.460;7.150;2023-07-20T21:54:08;4.47;;;2.88;;
2928;SDS011;1474;51.460;7.150;2023-07-20T21:56:34;3.45;;;3.15;;
2928;SDS011;1474;51.460;7.150;2023-07-20T21:59:00;4.13;;;3.30;;
2928;SDS011;1474;51.460;7.150;2023-07-20T22:01:27;4.28;;;3.20;;
2928;SDS011;1474;51.460;7.150;2023-07-20T22:03:53;3.20;;;2.90;;
2928;SDS011;1474;51.460;7.150;2023-07-20T22:06:19;3.30;;;3.05;;
2928;SDS011;1474;51.460;7.150;2023-07-20T22:08:45;3.35;;;3.05;;
2928;SDS011;1474;51.460;7.150;2023-07-20T22:11:11;3.28;;;2.97;;
2928;SDS011;1474;51.460;7.150;2023-07-20T22:13:37;4.57;;;3.40;;
2928;SDS011;1474;51.460;7.150;2023-07-20T22:16:03;3.58;;;3.28;;
2928;SDS011;1474;51.460;7.150;2023-07-20T22:18:30;3.20;;;2.90;;
2928;SDS011;1474;51.460;7.150;2023-07-20T22:20:56;3.30;;;3.00;;
2928;SDS011;1474;51.460;7.150;2023-07-20T22:23:32;3.88;;;3.53;;